sensor_id;sensor_type;location;lat;lon;timestamp;P1;durP1;ratioP1;P2;durP2;ratioP2
6997;SDS011;3539;47.982;12.238;2022-08-03T00:02:11;3.17;;;2.50;;
6997;SDS011;3539;47.982;12.238;2022-08-03T00:04:38;2.60;;;2.40;;
6997;SDS011;3539;47.982;12.238;2022-08-03T00:07:04;4.60;;;2.50;;
6997;SDS011;3539;47.982;12.238;2022-08-03T00:09:31;2.50;;;2.20;;
6997;SDS011;3539;47.982;12.238;2022-08-03T00:11:58;5.73;;;2.50;;
6997;SDS011;3539;47.982;12.238;2022-08-03T00:14:25;2.23;;;2.03;;
6997;SDS011;3539;47.982;12.238;2022-08-03T00:16:51;2.77;;;2.23;;
6997;SDS011;3539;47.982;12.238;2022-08-03T00:19:19;3.47;;;2.20;;
6997;SDS011;3539;47.982;12.238;2022-08-03T00:21:46;2.30;;;2.10;;
6997;SDS011;3539;47.982;12.238;2022-08-03T00:24:13;2.30;;;2.10;;
6997;SDS011;3539;47.982;12.238;2022-08-03T00:26:39;2.47;;;2.27;;
6997;SDS011;3539;47.982;12.238;2022-08-03T00:29:06;2.67;;;2.23;;
6997;SDS011;3539;47.982;12.238;2022-08-03T00:31:33;3.50;;;2.10;;
6997;SDS011;3539;47.982;12.238;2022-08-03T00:33:59;2.60;;;2.20;;
6997;SDS011;3539;47.982;12.238;2022-08-03T00:36:28;5.17;;;2.60;;
6997;SDS011;3539;47.982;12.238;2022-08-03T00:38:54;4.63;;;2.60;;
6997;SDS011;3539;47.982;12.238;2022-08-03T00:41:21;2.50;;;2.30;;
6997;SDS011;3539;47.982;12.238;2022-08-03T00:43:48;2.90;;;2.50;;
6997;SDS011;3539;47.982;12.238;2022-08-03T00:46:15;3.60;;;2.50;;
6997;SDS011;3539;47.982;12.238;2022-08-03T00:48:42;3.00;;;2.27;;
6997;SDS011;3539;47.982;12.238;2022-08-03T00:51:09;2.47;;;2.17;;
6997;SDS011;3539;47.982;12.238;2022-08-03T00:53:37;2.53;;;2.20;;
6997;SDS011;3539;47.982;12.238;2022-08-03T00:56:05;2.60;;;2.40;;
6997;SDS011;3539;47.982;12.238;2022-08-03T00:58:31;2.33;;;2.13;;
6997;SDS011;3539;47.982;12.238;2022-08-03T01:00:58;4.87;;;2.70;;
6997;SDS011;3539;47.982;12.238;2022-08-03T01:03:25;2.60;;;2.40;;
6997;SDS011;3539;47.982;12.238;2022-08-03T01:05:53;2.77;;;2.57;;
6997;SDS011;3539;47.982;12.238;2022-08-03T01:08:27;2.60;;;2.40;;
6997;SDS011;3539;47.982;12.238;2022-08-03T01:10:59;2.70;;;2.50;;
6997;SDS011;3539;47.982;12.238;2022-08-03T01:13:33;5.03;;;2.50;;
6997;SDS011;3539;47.982;12.238;2022-08-03T01:16:07;3.70;;;2.33;;
6997;SDS011;3539;47.982;12.238;2022-08-03T01:18:37;5.23;;;2.23;;
6997;SDS011;3539;47.982;12.238;2022-08-03T01:21:09;2.97;;;2.20;;
6997;SDS011;3539;47.982;12.238;2022-08-03T01:23:53;3.03;;;2.30;;
6997;SDS011;3539;47.982;12.238;2022-08-03T01:26:40;2.33;;;2.10;;
6997;SDS011;3539;47.982;12.238;2022-08-03T01:32:24;2.43;;;2.13;;
6997;SDS011;3539;47.982;12.238;2022-08-03T01:34:54;3.50;;;2.07;;
6997;SDS011;3539;47.982;12.238;2022-08-03T01:37:26;5.40;;;2.20;;
6997;SDS011;3539;47.982;12.238;2022-08-03T01:39:57;2.73;;;2.03;;
6997;SDS011;3539;47.982;12.238;2022-08-03T01:42:25;2.40;;;2.10;;
6997;SDS011;3539;47.982;12.238;2022-08-03T01:44:52;2.47;;;2.07;;
6997;SDS011;3539;47.982;12.238;2022-08-03T01:47:21;2.80;;;2.20;;
6997;SDS011;3539;47.982;12.238;2022-08-03T01:49:49;2.33;;;2.13;;
6997;SDS011;3539;47.982;12.238;2022-08-03T01:52:17;2.20;;;2.00;;
6997;SDS011;3539;47.982;12.238;2022-08-03T01:54:45;2.77;;;2.00;;
6997;SDS011;3539;47.982;12.238;2022-08-03T01:57:14;1.80;;;1.70;;
6997;SDS011;3539;47.982;12.238;2022-08-03T01:59:41;3.10;;;2.20;;
6997;SDS011;3539;47.982;12.238;2022-08-03T02:02:09;3.47;;;2.10;;
6997;SDS011;3539;47.982;12.238;2022-08-03T02:04:39;2.80;;;2.00;;
6997;SDS011;3539;47.982;12.238;2022-08-03T02:07:06;2.20;;;2.10;;
6997;SDS011;3539;47.982;12.238;2022-08-03T02:09:36;2.43;;;2.10;;
6997;SDS011;3539;47.982;12.238;2022-08-03T02:12:06;2.33;;;2.00;;
6997;SDS011;3539;47.982;12.238;2022-08-03T02:14:33;3.93;;;2.20;;
6997;SDS011;3539;47.982;12.238;2022-08-03T02:17:01;1.93;;;1.83;;
6997;SDS011;3539;47.982;12.238;2022-08-03T02:19:28;4.27;;;2.20;;
6997;SDS011;3539;47.982;12.238;2022-08-03T02:21:57;2.53;;;1.90;;
6997;SDS011;3539;47.982;12.238;2022-08-03T02:24:24;2.57;;;2.10;;
6997;SDS011;3539;47.982;12.238;2022-08-03T02:26:51;2.13;;;1.73;;
6997;SDS011;3539;47.982;12.238;2022-08-03T02:29:20;4.50;;;1.80;;
6997;SDS011;3539;47.982;12.238;2022-08-03T02:31:48;3.20;;;2.00;;
6997;SDS011;3539;47.982;12.238;2022-08-03T02:34:16;3.10;;;2.20;;
6997;SDS011;3539;47.982;12.238;2022-08-03T02:36:45;2.47;;;2.27;;
6997;SDS011;3539;47.982;12.238;2022-08-03T02:39:14;2.33;;;2.13;;
6997;SDS011;3539;47.982;12.238;2022-08-03T02:41:44;2.40;;;2.20;;
6997;SDS011;3539;47.982;12.238;2022-08-03T02:44:13;3.10;;;2.10;;
6997;SDS011;3539;47.982;12.238;2022-08-03T02:46:43;2.93;;;2.17;;
6997;SDS011;3539;47.982;12.238;2022-08-03T02:49:11;3.20;;;2.17;;
6997;SDS011;3539;47.982;12.238;2022-08-03T02:51:39;2.27;;;2.07;;
6997;SDS011;3539;47.982;12.238;2022-08-03T02:54:06;2.30;;;2.10;;
6997;SDS011;3539;47.982;12.238;2022-08-03T02:56:35;2.17;;;1.97;;
6997;SDS011;3539;47.982;12.238;2022-08-03T02:59:02;2.67;;;1.93;;
6997;SDS011;3539;47.982;12.238;2022-08-03T03:01:29;2.17;;;1.97;;
6997;SDS011;3539;47.982;12.238;2022-08-03T03:03:56;2.13;;;1.93;;
6997;SDS011;3539;47.982;12.238;2022-08-03T03:06:24;2.10;;;1.90;;
6997;SDS011;3539;47.982;12.238;2022-08-03T03:08:52;1.90;;;1.80;;
6997;SDS011;3539;47.982;12.238;2022-08-03T03:11:19;2.30;;;2.10;;
6997;SDS011;3539;47.982;12.238;2022-08-03T03:13:48;3.27;;;1.80;;
6997;SDS011;3539;47.982;12.238;2022-08-03T03:16:16;2.80;;;1.83;;
6997;SDS011;3539;47.982;12.238;2022-08-03T03:18:44;2.57;;;1.80;;
6997;SDS011;3539;47.982;12.238;2022-08-03T03:21:12;3.27;;;1.90;;
6997;SDS011;3539;47.982;12.238;2022-08-03T03:23:41;2.03;;;1.83;;
6997;SDS011;3539;47.982;12.238;2022-08-03T03:26:08;4.27;;;2.43;;
6997;SDS011;3539;47.982;12.238;2022-08-03T03:28:35;1.73;;;1.63;;
6997;SDS011;3539;47.982;12.238;2022-08-03T03:31:04;2.10;;;1.90;;
6997;SDS011;3539;47.982;12.238;2022-08-03T03:33:32;2.10;;;1.90;;
6997;SDS011;3539;47.982;12.238;2022-08-03T03:35:59;2.60;;;1.70;;
6997;SDS011;3539;47.982;12.238;2022-08-03T03:38:25;2.10;;;1.90;;
6997;SDS011;3539;47.982;12.238;2022-08-03T03:40:53;1.90;;;1.80;;
6997;SDS011;3539;47.982;12.238;2022-08-03T03:43:21;2.27;;;1.80;;
6997;SDS011;3539;47.982;12.238;2022-08-03T03:45:48;2.77;;;2.00;;
6997;SDS011;3539;47.982;12.238;2022-08-03T03:48:19;2.03;;;1.70;;
6997;SDS011;3539;47.982;12.238;2022-08-03T03:50:45;3.40;;;2.20;;
6997;SDS011;3539;47.982;12.238;2022-08-03T03:53:12;2.13;;;1.93;;
6997;SDS011;3539;47.982;12.238;2022-08-03T03:55:39;3.10;;;1.73;;
6997;SDS011;3539;47.982;12.238;2022-08-03T03:58:06;2.67;;;2.00;;
6997;SDS011;3539;47.982;12.238;2022-08-03T04:00:33;2.20;;;2.00;;
6997;SDS011;3539;47.982;12.238;2022-08-03T04:03:00;2.13;;;1.90;;
6997;SDS011;3539;47.982;12.238;2022-08-03T04:05:28;2.33;;;1.80;;
6997;SDS011;3539;47.982;12.238;2022-08-03T04:08:13;2.40;;;1.80;;
6997;SDS011;3539;47.982;12.238;2022-08-03T04:11:02;1.70;;;1.60;;
6997;SDS011;3539;47.982;12.238;2022-08-03T04:13:33;3.47;;;1.97;;
6997;SDS011;3539;47.982;12.238;2022-08-03T04:16:02;2.70;;;2.07;;
6997;SDS011;3539;47.982;12.238;2022-08-03T04:18:30;4.23;;;2.07;;
6997;SDS011;3539;47.982;12.238;2022-08-03T04:21:00;2.80;;;2.20;;
6997;SDS011;3539;47.982;12.238;2022-08-03T04:23:30;2.47;;;1.80;;
6997;SDS011;3539;47.982;12.238;2022-08-03T04:25:59;3.77;;;2.00;;
6997;SDS011;3539;47.982;12.238;2022-08-03T04:28:27;3.00;;;2.43;;
6997;SDS011;3539;47.982;12.238;2022-08-03T04:30:55;2.40;;;2.10;;
6997;SDS011;3539;47.982;12.238;2022-08-03T04:33:22;3.90;;;2.30;;
6997;SDS011;3539;47.982;12.238;2022-08-03T04:35:50;4.40;;;2.00;;
6997;SDS011;3539;47.982;12.238;2022-08-03T04:38:19;5.30;;;2.07;;
6997;SDS011;3539;47.982;12.238;2022-08-03T04:40:47;3.20;;;2.10;;
6997;SDS011;3539;47.982;12.238;2022-08-03T04:43:14;2.07;;;1.97;;
6997;SDS011;3539;47.982;12.238;2022-08-03T04:45:42;2.67;;;1.80;;
6997;SDS011;3539;47.982;12.238;2022-08-03T04:48:09;3.23;;;1.93;;
6997;SDS011;3539;47.982;12.238;2022-08-03T04:50:35;2.30;;;2.10;;
6997;SDS011;3539;47.982;12.238;2022-08-03T04:53:04;3.47;;;1.90;;
6997;SDS011;3539;47.982;12.238;2022-08-03T04:55:33;2.53;;;1.90;;
6997;SDS011;3539;47.982;12.238;2022-08-03T04:58:00;2.50;;;2.10;;
6997;SDS011;3539;47.982;12.238;2022-08-03T05:00:28;3.07;;;2.00;;
6997;SDS011;3539;47.982;12.238;2022-08-03T05:02:55;4.40;;;2.30;;
6997;SDS011;3539;47.982;12.238;2022-08-03T05:05:22;2.23;;;2.03;;
6997;SDS011;3539;47.982;12.238;2022-08-03T05:07:48;2.80;;;2.20;;
6997;SDS011;3539;47.982;12.238;2022-08-03T05:10:15;3.40;;;2.27;;
6997;SDS011;3539;47.982;12.238;2022-08-03T05:12:44;4.23;;;2.93;;
6997;SDS011;3539;47.982;12.238;2022-08-03T05:15:11;6.93;;;4.30;;
6997;SDS011;3539;47.982;12.238;2022-08-03T05:17:38;7.73;;;6.93;;
6997;SDS011;3539;47.982;12.238;2022-08-03T05:20:05;8.77;;;6.70;;
6997;SDS011;3539;47.982;12.238;2022-08-03T05:22:32;7.10;;;6.40;;
6997;SDS011;3539;47.982;12.238;2022-08-03T05:24:59;7.03;;;5.10;;
6997;SDS011;3539;47.982;12.238;2022-08-03T05:27:26;3.57;;;3.27;;
6997;SDS011;3539;47.982;12.238;2022-08-03T05:29:54;5.07;;;3.00;;
6997;SDS011;3539;47.982;12.238;2022-08-03T05:32:21;5.47;;;2.63;;
6997;SDS011;3539;47.982;12.238;2022-08-03T05:34:47;3.67;;;3.00;;
6997;SDS011;3539;47.982;12.238;2022-08-03T05:37:14;3.43;;;2.63;;
6997;SDS011;3539;47.982;12.238;2022-08-03T05:39:41;3.70;;;3.30;;
6997;SDS011;3539;47.982;12.238;2022-08-03T05:42:07;3.77;;;3.10;;
6997;SDS011;3539;47.982;12.238;2022-08-03T05:44:34;4.40;;;3.30;;
6997;SDS011;3539;47.982;12.238;2022-08-03T05:47:04;2.93;;;2.73;;
6997;SDS011;3539;47.982;12.238;2022-08-03T05:49:30;7.80;;;3.00;;
6997;SDS011;3539;47.982;12.238;2022-08-03T05:51:57;3.47;;;3.00;;
6997;SDS011;3539;47.982;12.238;2022-08-03T05:54:24;3.37;;;3.07;;
6997;SDS011;3539;47.982;12.238;2022-08-03T05:56:50;3.90;;;3.37;;
6997;SDS011;3539;47.982;12.238;2022-08-03T05:59:17;6.37;;;3.93;;
6997;SDS011;3539;47.982;12.238;2022-08-03T06:01:44;4.63;;;3.90;;
6997;SDS011;3539;47.982;12.238;2022-08-03T06:04:12;4.73;;;3.77;;
6997;SDS011;3539;47.982;12.238;2022-08-03T06:06:39;4.87;;;4.37;;
6997;SDS011;3539;47.982;12.238;2022-08-03T06:09:06;4.37;;;3.97;;
6997;SDS011;3539;47.982;12.238;2022-08-03T06:11:34;4.90;;;3.63;;
6997;SDS011;3539;47.982;12.238;2022-08-03T06:14:01;3.73;;;3.40;;
6997;SDS011;3539;47.982;12.238;2022-08-03T06:16:28;4.60;;;3.60;;
6997;SDS011;3539;47.982;12.238;2022-08-03T06:18:54;3.80;;;3.50;;
6997;SDS011;3539;47.982;12.238;2022-08-03T06:21:22;3.67;;;3.00;;
6997;SDS011;3539;47.982;12.238;2022-08-03T06:23:49;5.07;;;3.40;;
6997;SDS011;3539;47.982;12.238;2022-08-03T06:26:15;3.80;;;3.40;;
6997;SDS011;3539;47.982;12.238;2022-08-03T06:28:43;3.83;;;3.20;;
6997;SDS011;3539;47.982;12.238;2022-08-03T06:31:09;7.83;;;3.13;;
6997;SDS011;3539;47.982;12.238;2022-08-03T06:33:36;5.43;;;3.70;;
6997;SDS011;3539;47.982;12.238;2022-08-03T06:36:03;6.13;;;3.60;;
6997;SDS011;3539;47.982;12.238;2022-08-03T06:38:32;3.83;;;3.27;;
6997;SDS011;3539;47.982;12.238;2022-08-03T06:40:58;3.40;;;3.10;;
6997;SDS011;3539;47.982;12.238;2022-08-03T06:43:25;6.00;;;3.30;;
6997;SDS011;3539;47.982;12.238;2022-08-03T06:45:52;5.97;;;3.50;;
6997;SDS011;3539;47.982;12.238;2022-08-03T06:48:18;5.00;;;3.40;;
6997;SDS011;3539;47.982;12.238;2022-08-03T06:50:45;3.80;;;3.40;;
6997;SDS011;3539;47.982;12.238;2022-08-03T06:53:12;4.50;;;3.20;;
6997;SDS011;3539;47.982;12.238;2022-08-03T06:55:40;6.97;;;3.23;;
6997;SDS011;3539;47.982;12.238;2022-08-03T06:58:10;3.90;;;3.40;;
6997;SDS011;3539;47.982;12.238;2022-08-03T07:00:36;4.50;;;2.83;;
6997;SDS011;3539;47.982;12.238;2022-08-03T07:03:03;3.83;;;3.20;;
6997;SDS011;3539;47.982;12.238;2022-08-03T07:05:30;4.67;;;3.07;;
6997;SDS011;3539;47.982;12.238;2022-08-03T07:07:59;3.80;;;2.90;;
6997;SDS011;3539;47.982;12.238;2022-08-03T07:10:27;5.07;;;3.00;;
6997;SDS011;3539;47.982;12.238;2022-08-03T07:12:55;2.80;;;2.57;;
6997;SDS011;3539;47.982;12.238;2022-08-03T07:15:22;3.20;;;2.80;;
6997;SDS011;3539;47.982;12.238;2022-08-03T07:17:49;3.23;;;2.50;;
6997;SDS011;3539;47.982;12.238;2022-08-03T07:20:15;3.67;;;3.23;;
6997;SDS011;3539;47.982;12.238;2022-08-03T07:22:42;3.63;;;2.73;;
6997;SDS011;3539;47.982;12.238;2022-08-03T07:25:09;3.27;;;2.97;;
6997;SDS011;3539;47.982;12.238;2022-08-03T07:30:48;6.57;;;2.70;;
6997;SDS011;3539;47.982;12.238;2022-08-03T07:33:18;4.13;;;2.73;;
6997;SDS011;3539;47.982;12.238;2022-08-03T07:35:44;2.67;;;2.43;;
6997;SDS011;3539;47.982;12.238;2022-08-03T07:38:11;5.07;;;2.80;;
6997;SDS011;3539;47.982;12.238;2022-08-03T07:40:38;3.93;;;2.50;;
6997;SDS011;3539;47.982;12.238;2022-08-03T07:43:04;6.00;;;2.70;;
6997;SDS011;3539;47.982;12.238;2022-08-03T07:45:31;3.87;;;2.73;;
6997;SDS011;3539;47.982;12.238;2022-08-03T07:47:59;4.60;;;2.70;;
6997;SDS011;3539;47.982;12.238;2022-08-03T07:50:26;2.93;;;2.60;;
6997;SDS011;3539;47.982;12.238;2022-08-03T07:52:53;2.93;;;2.43;;
6997;SDS011;3539;47.982;12.238;2022-08-03T07:55:20;3.40;;;2.60;;
6997;SDS011;3539;47.982;12.238;2022-08-03T07:57:57;2.60;;;2.40;;
6997;SDS011;3539;47.982;12.238;2022-08-03T08:00:28;3.83;;;2.50;;
6997;SDS011;3539;47.982;12.238;2022-08-03T08:02:54;4.07;;;2.40;;
6997;SDS011;3539;47.982;12.238;2022-08-03T08:05:25;4.27;;;2.57;;
6997;SDS011;3539;47.982;12.238;2022-08-03T08:07:55;2.70;;;2.50;;
6997;SDS011;3539;47.982;12.238;2022-08-03T08:10:22;3.70;;;2.40;;
6997;SDS011;3539;47.982;12.238;2022-08-03T08:12:49;2.67;;;2.37;;
6997;SDS011;3539;47.982;12.238;2022-08-03T08:15:15;2.63;;;2.43;;
6997;SDS011;3539;47.982;12.238;2022-08-03T08:17:43;1.90;;;1.80;;
6997;SDS011;3539;47.982;12.238;2022-08-03T08:20:11;2.20;;;1.87;;
6997;SDS011;3539;47.982;12.238;2022-08-03T08:22:42;4.40;;;2.07;;
6997;SDS011;3539;47.982;12.238;2022-08-03T08:25:09;2.07;;;1.90;;
6997;SDS011;3539;47.982;12.238;2022-08-03T08:27:40;2.07;;;1.90;;
6997;SDS011;3539;47.982;12.238;2022-08-03T08:30:08;2.47;;;2.00;;
6997;SDS011;3539;47.982;12.238;2022-08-03T08:32:35;2.93;;;1.97;;
6997;SDS011;3539;47.982;12.238;2022-08-03T08:35:02;2.33;;;1.90;;
6997;SDS011;3539;47.982;12.238;2022-08-03T08:37:29;1.63;;;1.53;;
6997;SDS011;3539;47.982;12.238;2022-08-03T08:40:05;1.80;;;1.70;;
6997;SDS011;3539;47.982;12.238;2022-08-03T08:42:37;2.53;;;2.10;;
6997;SDS011;3539;47.982;12.238;2022-08-03T08:45:08;3.63;;;1.93;;
6997;SDS011;3539;47.982;12.238;2022-08-03T08:47:37;2.43;;;2.00;;
6997;SDS011;3539;47.982;12.238;2022-08-03T08:50:05;2.67;;;1.80;;
6997;SDS011;3539;47.982;12.238;2022-08-03T08:52:33;3.67;;;1.80;;
6997;SDS011;3539;47.982;12.238;2022-08-03T08:55:03;1.90;;;1.60;;
6997;SDS011;3539;47.982;12.238;2022-08-03T08:57:32;2.03;;;1.70;;
6997;SDS011;3539;47.982;12.238;2022-08-03T09:00:05;2.80;;;1.70;;
6997;SDS011;3539;47.982;12.238;2022-08-03T09:02:38;1.60;;;1.50;;
6997;SDS011;3539;47.982;12.238;2022-08-03T09:05:07;1.73;;;1.40;;
6997;SDS011;3539;47.982;12.238;2022-08-03T09:07:35;1.85;;;1.40;;
6997;SDS011;3539;47.982;12.238;2022-08-03T09:10:05;2.78;;;1.45;;
6997;SDS011;3539;47.982;12.238;2022-08-03T09:12:35;1.60;;;1.50;;
6997;SDS011;3539;47.982;12.238;2022-08-03T09:15:14;1.70;;;1.45;;
6997;SDS011;3539;47.982;12.238;2022-08-03T09:17:45;2.90;;;1.40;;
6997;SDS011;3539;47.982;12.238;2022-08-03T09:20:12;2.78;;;1.60;;
6997;SDS011;3539;47.982;12.238;2022-08-03T09:22:50;1.70;;;1.55;;
6997;SDS011;3539;47.982;12.238;2022-08-03T09:25:27;1.65;;;1.50;;
6997;SDS011;3539;47.982;12.238;2022-08-03T09:27:55;2.17;;;1.60;;
6997;SDS011;3539;47.982;12.238;2022-08-03T09:30:30;1.90;;;1.80;;
6997;SDS011;3539;47.982;12.238;2022-08-03T09:32:59;1.85;;;1.63;;
6997;SDS011;3539;47.982;12.238;2022-08-03T09:35:26;1.90;;;1.70;;
6997;SDS011;3539;47.982;12.238;2022-08-03T09:38:07;1.80;;;1.70;;
6997;SDS011;3539;47.982;12.238;2022-08-03T09:40:36;1.58;;;1.48;;
6997;SDS011;3539;47.982;12.238;2022-08-03T09:43:03;2.33;;;1.70;;
6997;SDS011;3539;47.982;12.238;2022-08-03T09:45:32;5.28;;;1.85;;
6997;SDS011;3539;47.982;12.238;2022-08-03T09:50:48;1.80;;;1.63;;
6997;SDS011;3539;47.982;12.238;2022-08-03T09:53:19;1.70;;;1.60;;
6997;SDS011;3539;47.982;12.238;2022-08-03T09:58:32;2.28;;;1.60;;
6997;SDS011;3539;47.982;12.238;2022-08-03T10:01:01;1.80;;;1.70;;
6997;SDS011;3539;47.982;12.238;2022-08-03T10:03:30;3.88;;;1.90;;
6997;SDS011;3539;47.982;12.238;2022-08-03T10:06:41;3.50;;;1.63;;
6997;SDS011;3539;47.982;12.238;2022-08-03T10:09:30;1.88;;;1.70;;
6997;SDS011;3539;47.982;12.238;2022-08-03T10:12:07;1.75;;;1.65;;
6997;SDS011;3539;47.982;12.238;2022-08-03T10:14:35;4.10;;;1.88;;
6997;SDS011;3539;47.982;12.238;2022-08-03T10:17:03;1.80;;;1.70;;
6997;SDS011;3539;47.982;12.238;2022-08-03T10:19:32;1.70;;;1.60;;
6997;SDS011;3539;47.982;12.238;2022-08-03T10:22:00;2.92;;;1.70;;
6997;SDS011;3539;47.982;12.238;2022-08-03T10:24:29;1.90;;;1.73;;
6997;SDS011;3539;47.982;12.238;2022-08-03T10:26:58;1.83;;;1.70;;
6997;SDS011;3539;47.982;12.238;2022-08-03T10:29:33;2.58;;;1.85;;
6997;SDS011;3539;47.982;12.238;2022-08-03T10:32:06;1.80;;;1.70;;
6997;SDS011;3539;47.982;12.238;2022-08-03T10:35:32;3.08;;;1.80;;
6997;SDS011;3539;47.982;12.238;2022-08-03T10:38:00;2.28;;;1.73;;
6997;SDS011;3539;47.982;12.238;2022-08-03T10:40:37;1.83;;;1.70;;
6997;SDS011;3539;47.982;12.238;2022-08-03T10:43:06;2.35;;;1.67;;
6997;SDS011;3539;47.982;12.238;2022-08-03T10:46:00;1.98;;;1.88;;
6997;SDS011;3539;47.982;12.238;2022-08-03T10:49:22;1.75;;;1.65;;
6997;SDS011;3539;47.982;12.238;2022-08-03T10:52:03;1.88;;;1.77;;
6997;SDS011;3539;47.982;12.238;2022-08-03T10:54:39;1.73;;;1.63;;
6997;SDS011;3539;47.982;12.238;2022-08-03T10:57:40;1.77;;;1.67;;
6997;SDS011;3539;47.982;12.238;2022-08-03T11:00:29;1.70;;;1.60;;
6997;SDS011;3539;47.982;12.238;2022-08-03T11:03:16;1.95;;;1.85;;
6997;SDS011;3539;47.982;12.238;2022-08-03T11:05:45;2.10;;;2.00;;
6997;SDS011;3539;47.982;12.238;2022-08-03T11:13:57;1.92;;;1.83;;
6997;SDS011;3539;47.982;12.238;2022-08-03T11:16:25;1.98;;;1.88;;
6997;SDS011;3539;47.982;12.238;2022-08-03T11:18:58;3.63;;;2.00;;
6997;SDS011;3539;47.982;12.238;2022-08-03T11:25:01;1.90;;;1.80;;
6997;SDS011;3539;47.982;12.238;2022-08-03T11:28:25;1.88;;;1.77;;
6997;SDS011;3539;47.982;12.238;2022-08-03T11:30:52;1.85;;;1.75;;
6997;SDS011;3539;47.982;12.238;2022-08-03T11:33:27;2.28;;;2.17;;
6997;SDS011;3539;47.982;12.238;2022-08-03T11:36:02;2.85;;;1.80;;
6997;SDS011;3539;47.982;12.238;2022-08-03T11:41:59;1.83;;;1.73;;
6997;SDS011;3539;47.982;12.238;2022-08-03T11:44:39;2.00;;;1.90;;
6997;SDS011;3539;47.982;12.238;2022-08-03T11:47:07;3.38;;;1.80;;
6997;SDS011;3539;47.982;12.238;2022-08-03T11:49:52;3.60;;;3.40;;
6997;SDS011;3539;47.982;12.238;2022-08-03T12:06:02;3.17;;;2.97;;
6997;SDS011;3539;47.982;12.238;2022-08-03T12:08:40;3.33;;;3.00;;
6997;SDS011;3539;47.982;12.238;2022-08-03T12:11:08;2.85;;;2.65;;
6997;SDS011;3539;47.982;12.238;2022-08-03T12:13:46;3.75;;;3.45;;
6997;SDS011;3539;47.982;12.238;2022-08-03T12:16:53;3.35;;;3.20;;
6997;SDS011;3539;47.982;12.238;2022-08-03T12:19:20;3.88;;;3.58;;
6997;SDS011;3539;47.982;12.238;2022-08-03T12:21:47;4.35;;;3.92;;
6997;SDS011;3539;47.982;12.238;2022-08-03T12:24:38;3.80;;;3.47;;
6997;SDS011;3539;47.982;12.238;2022-08-03T12:27:22;3.95;;;3.75;;
6997;SDS011;3539;47.982;12.238;2022-08-03T12:30:02;4.40;;;4.10;;
6997;SDS011;3539;47.982;12.238;2022-08-03T12:32:35;3.60;;;3.40;;
6997;SDS011;3539;47.982;12.238;2022-08-03T12:35:06;3.97;;;3.78;;
6997;SDS011;3539;47.982;12.238;2022-08-03T12:37:33;4.25;;;3.85;;
6997;SDS011;3539;47.982;12.238;2022-08-03T12:40:01;3.63;;;3.42;;
6997;SDS011;3539;47.982;12.238;2022-08-03T12:42:31;4.10;;;3.90;;
6997;SDS011;3539;47.982;12.238;2022-08-03T12:47:52;3.70;;;3.50;;
6997;SDS011;3539;47.982;12.238;2022-08-03T12:50:23;4.03;;;3.83;;
6997;SDS011;3539;47.982;12.238;2022-08-03T12:52:55;3.88;;;3.67;;
6997;SDS011;3539;47.982;12.238;2022-08-03T12:55:36;4.25;;;4.05;;
6997;SDS011;3539;47.982;12.238;2022-08-03T12:58:04;3.70;;;3.50;;
6997;SDS011;3539;47.982;12.238;2022-08-03T13:00:35;3.78;;;3.58;;
6997;SDS011;3539;47.982;12.238;2022-08-03T13:03:04;3.95;;;3.75;;
6997;SDS011;3539;47.982;12.238;2022-08-03T13:05:32;3.40;;;3.20;;
6997;SDS011;3539;47.982;12.238;2022-08-03T13:08:16;4.10;;;3.80;;
6997;SDS011;3539;47.982;12.238;2022-08-03T13:10:44;3.75;;;3.55;;
6997;SDS011;3539;47.982;12.238;2022-08-03T13:16:07;4.18;;;3.88;;
6997;SDS011;3539;47.982;12.238;2022-08-03T13:19:03;5.47;;;5.18;;
6997;SDS011;3539;47.982;12.238;2022-08-03T13:21:30;5.07;;;4.07;;
6997;SDS011;3539;47.982;12.238;2022-08-03T13:23:58;4.40;;;4.20;;
6997;SDS011;3539;47.982;12.238;2022-08-03T13:26:38;4.90;;;4.70;;
6997;SDS011;3539;47.982;12.238;2022-08-03T13:29:06;4.30;;;4.07;;
6997;SDS011;3539;47.982;12.238;2022-08-03T13:31:42;4.55;;;4.35;;
6997;SDS011;3539;47.982;12.238;2022-08-03T13:34:26;3.78;;;3.58;;
6997;SDS011;3539;47.982;12.238;2022-08-03T13:37:00;3.85;;;3.65;;
6997;SDS011;3539;47.982;12.238;2022-08-03T13:39:28;4.47;;;4.07;;
6997;SDS011;3539;47.982;12.238;2022-08-03T13:42:31;3.70;;;3.42;;
6997;SDS011;3539;47.982;12.238;2022-08-03T13:44:59;3.78;;;3.58;;
6997;SDS011;3539;47.982;12.238;2022-08-03T13:47:30;3.60;;;3.45;;
6997;SDS011;3539;47.982;12.238;2022-08-03T13:49:59;3.70;;;3.40;;
6997;SDS011;3539;47.982;12.238;2022-08-03T13:52:26;3.75;;;3.47;;
6997;SDS011;3539;47.982;12.238;2022-08-03T13:57:47;3.65;;;3.47;;
6997;SDS011;3539;47.982;12.238;2022-08-03T14:00:14;3.65;;;3.45;;
6997;SDS011;3539;47.982;12.238;2022-08-03T14:02:42;3.70;;;3.50;;
6997;SDS011;3539;47.982;12.238;2022-08-03T14:05:10;3.33;;;3.13;;
6997;SDS011;3539;47.982;12.238;2022-08-03T14:07:37;3.33;;;3.13;;
6997;SDS011;3539;47.982;12.238;2022-08-03T14:10:04;3.33;;;3.13;;
6997;SDS011;3539;47.982;12.238;2022-08-03T14:12:31;3.10;;;2.90;;
6997;SDS011;3539;47.982;12.238;2022-08-03T14:14:58;3.28;;;3.08;;
6997;SDS011;3539;47.982;12.238;2022-08-03T14:17:25;2.97;;;2.88;;
6997;SDS011;3539;47.982;12.238;2022-08-03T14:19:51;3.28;;;3.08;;
6997;SDS011;3539;47.982;12.238;2022-08-03T14:22:20;3.28;;;3.08;;
6997;SDS011;3539;47.982;12.238;2022-08-03T14:24:46;2.72;;;2.63;;
6997;SDS011;3539;47.982;12.238;2022-08-03T14:27:13;2.85;;;2.65;;
6997;SDS011;3539;47.982;12.238;2022-08-03T14:29:40;2.92;;;2.80;;
6997;SDS011;3539;47.982;12.238;2022-08-03T14:32:07;3.17;;;2.97;;
6997;SDS011;3539;47.982;12.238;2022-08-03T14:34:34;2.97;;;2.65;;
6997;SDS011;3539;47.982;12.238;2022-08-03T14:37:04;2.55;;;2.45;;
6997;SDS011;3539;47.982;12.238;2022-08-03T14:39:32;2.67;;;2.58;;
6997;SDS011;3539;47.982;12.238;2022-08-03T14:41:59;3.03;;;2.83;;
6997;SDS011;3539;47.982;12.238;2022-08-03T14:44:26;2.55;;;2.45;;
6997;SDS011;3539;47.982;12.238;2022-08-03T14:46:53;3.15;;;2.88;;
6997;SDS011;3539;47.982;12.238;2022-08-03T14:49:19;2.90;;;2.70;;
6997;SDS011;3539;47.982;12.238;2022-08-03T14:51:46;2.83;;;2.63;;
6997;SDS011;3539;47.982;12.238;2022-08-03T14:54:13;3.15;;;2.95;;
6997;SDS011;3539;47.982;12.238;2022-08-03T14:56:41;3.10;;;2.90;;
6997;SDS011;3539;47.982;12.238;2022-08-03T14:59:08;2.70;;;2.60;;
6997;SDS011;3539;47.982;12.238;2022-08-03T15:01:35;2.80;;;2.70;;
6997;SDS011;3539;47.982;12.238;2022-08-03T15:04:02;2.90;;;2.60;;
6997;SDS011;3539;47.982;12.238;2022-08-03T15:06:29;2.85;;;2.75;;
6997;SDS011;3539;47.982;12.238;2022-08-03T15:08:55;3.60;;;2.78;;
6997;SDS011;3539;47.982;12.238;2022-08-03T15:11:22;3.13;;;2.92;;
6997;SDS011;3539;47.982;12.238;2022-08-03T15:13:50;3.10;;;2.85;;
6997;SDS011;3539;47.982;12.238;2022-08-03T15:16:17;2.72;;;2.63;;
6997;SDS011;3539;47.982;12.238;2022-08-03T15:18:44;2.70;;;2.58;;
6997;SDS011;3539;47.982;12.238;2022-08-03T15:21:11;3.00;;;2.80;;
6997;SDS011;3539;47.982;12.238;2022-08-03T15:23:38;3.00;;;2.80;;
6997;SDS011;3539;47.982;12.238;2022-08-03T15:26:04;3.78;;;2.75;;
6997;SDS011;3539;47.982;12.238;2022-08-03T15:28:31;2.83;;;2.63;;
6997;SDS011;3539;47.982;12.238;2022-08-03T15:31:00;2.95;;;2.75;;
6997;SDS011;3539;47.982;12.238;2022-08-03T15:33:27;2.88;;;2.67;;
6997;SDS011;3539;47.982;12.238;2022-08-03T15:35:54;2.75;;;2.55;;
6997;SDS011;3539;47.982;12.238;2022-08-03T15:38:21;2.72;;;2.63;;
6997;SDS011;3539;47.982;12.238;2022-08-03T15:40:48;2.45;;;2.35;;
6997;SDS011;3539;47.982;12.238;2022-08-03T15:43:18;2.97;;;2.70;;
6997;SDS011;3539;47.982;12.238;2022-08-03T15:45:45;3.97;;;2.72;;
6997;SDS011;3539;47.982;12.238;2022-08-03T15:48:16;2.65;;;2.50;;
6997;SDS011;3539;47.982;12.238;2022-08-03T15:50:47;2.47;;;2.38;;
6997;SDS011;3539;47.982;12.238;2022-08-03T15:53:13;2.63;;;2.40;;
6997;SDS011;3539;47.982;12.238;2022-08-03T15:55:41;2.50;;;2.40;;
6997;SDS011;3539;47.982;12.238;2022-08-03T15:58:08;2.50;;;2.40;;
6997;SDS011;3539;47.982;12.238;2022-08-03T16:00:35;2.53;;;2.35;;
6997;SDS011;3539;47.982;12.238;2022-08-03T16:03:02;2.58;;;2.42;;
6997;SDS011;3539;47.982;12.238;2022-08-03T16:05:30;2.33;;;2.22;;